Time;durP1;ratioP1;P1;durP2;ratioP2;P2;SDS_P1;SDS_P2;PMS_P1;PMS_P2;Temp;Humidity;BMP_temperature;BMP_pressure;BME280_temperature;BME280_humidity;BME280_pressure;Samples;Min_cycle;Max_cycle;Signal;HPM_P1;HPM_P2
2023/09/01 00:00:47;;;;;;;11.35;2.53;;;11.30;99.90;;;;;;4986578;28;20053;-51
2023/09/01 00:03:13;;;;;;;8.52;3.08;;;12.80;99.90;;;;;;4987048;28;20043;-52
2023/09/01 00:05:38;;;;;;;5.07;2.67;;;11.30;99.90;;;;;;4987782;28;20042;-48
2023/09/01 00:08:05;;;;;;;5.68;2.80;;;11.30;99.90;;;;;;4987654;28;20054;-49
2023/09/01 00:10:39;;;;;;;5.07;2.60;;;11.20;99.90;;;;;;4988052;28;20393;-51
2023/09/01 00:13:05;;;;;;;6.05;2.90;;;11.20;99.90;;;;;;4987930;28;20058;-51
2023/09/01 00:15:31;;;;;;;6.30;2.55;;;11.20;99.90;;;;;;4987223;28;20086;-47
2023/09/01 00:17:57;;;;;;;5.22;2.95;;;11.20;99.90;;;;;;4987259;28;20054;-49
2023/09/01 00:20:23;;;;;;;4.78;2.63;;;11.10;99.90;;;;;;4968852;28;20117;-51
2023/09/01 00:22:49;;;;;;;5.93;2.60;;;11.10;99.90;;;;;;4986484;28;20066;-48
2023/09/01 00:25:15;;;;;;;3.70;2.45;;;11.10;99.90;;;;;;4987290;28;20706;-50
2023/09/01 00:27:40;;;;;;;6.28;2.90;;;11.10;99.90;;;;;;4987008;28;20048;-50
2023/09/01 00:30:07;;;;;;;5.15;2.70;;;11.10;99.90;;;;;;4987546;28;20053;-51
2023/09/01 00:32:33;;;;;;;6.13;2.70;;;11.10;99.90;;;;;;4987741;28;20122;-49
2023/09/01 00:35:00;;;;;;;4.72;2.72;;;11.00;99.90;;;;;;4985962;28;20038;-51
2023/09/01 00:37:25;;;;;;;6.07;2.78;;;11.10;99.90;;;;;;4986025;28;20444;-48
2023/09/01 00:39:51;;;;;;;7.43;2.75;;;11.00;99.90;;;;;;4986879;28;20133;-52
2023/09/01 00:42:17;;;;;;;6.15;2.75;;;10.90;99.90;;;;;;4986755;28;20054;-51
2023/09/01 00:44:43;;;;;;;7.53;2.75;;;10.90;99.90;;;;;;4986895;28;20121;-52
2023/09/01 00:47:09;;;;;;;6.20;2.67;;;10.90;99.90;;;;;;4986749;28;20505;-49
2023/09/01 00:49:38;;;;;;;6.88;2.75;;;10.90;99.90;;;;;;4987043;28;20133;-52
2023/09/01 00:52:04;;;;;;;5.70;2.75;;;10.90;99.90;;;;;;4986544;28;20098;-51
2023/09/01 00:54:31;;;;;;;6.35;2.95;;;10.80;99.90;;;;;;4985516;28;20042;-51
2023/09/01 00:56:57;;;;;;;7.97;2.80;;;10.80;99.90;;;;;;4997896;28;20054;-52
2023/09/01 00:59:24;;;;;;;6.00;2.60;;;10.80;99.90;;;;;;4968985;28;20058;-50
2023/09/01 01:01:50;;;;;;;7.68;2.85;;;10.80;99.90;;;;;;4968405;28;20098;-51
2023/09/01 01:04:17;;;;;;;8.38;3.05;;;10.80;99.90;;;;;;4986876;28;20046;-51
2023/09/01 01:07:00;;;;;;;5.65;2.63;;;10.80;99.90;;;;;;5076764;22;20053;-51
2023/09/01 01:09:45;;;;;;;7.43;2.85;;;10.70;99.90;;;;;;5040224;28;20449;-48
2023/09/01 01:12:51;;;;;;;4.65;2.42;;;10.70;99.90;;;;;;5015207;28;20053;-51
2023/09/01 01:15:20;;;;;;;8.43;2.72;;;10.80;99.90;;;;;;5026016;28;20050;-51
2023/09/01 01:17:46;;;;;;;7.72;2.95;;;10.70;99.90;;;;;;5024897;28;20045;-51
2023/09/01 01:20:31;;;;;;;6.78;2.95;;;10.60;99.90;;;;;;5026151;28;20532;-51
2023/09/01 01:23:10;;;;;;;6.88;2.70;;;10.60;99.90;;;;;;5024485;28;20057;-48
2023/09/01 01:25:50;;;;;;;7.28;2.85;;;10.50;99.90;;;;;;5025179;28;20044;-52
2023/09/01 01:28:17;;;;;;;5.63;2.70;;;10.50;99.90;;;;;;5024624;28;20947;-49
2023/09/01 01:30:43;;;;;;;7.97;2.80;;;10.40;99.90;;;;;;5006607;28;20100;-50
2023/09/01 01:33:27;;;;;;;5.28;2.60;;;10.40;99.90;;;;;;5025122;28;20125;-50
2023/09/01 01:36:11;;;;;;;7.57;3.00;;;10.50;99.90;;;;;;5023836;28;20676;-48
2023/09/01 01:38:40;;;;;;;9.60;2.90;;;10.50;99.90;;;;;;5023783;28;20057;-47
2023/09/01 01:41:13;;;;;;;9.20;2.92;;;10.40;99.90;;;;;;5024755;28;20048;-49
2023/09/01 01:43:41;;;;;;;7.80;2.85;;;10.40;99.90;;;;;;5025387;28;20056;-51
2023/09/01 01:46:07;;;;;;;4.88;2.83;;;10.50;99.90;;;;;;5024611;28;20439;-51
2023/09/01 01:48:39;;;;;;;5.47;2.78;;;10.50;99.90;;;;;;5033358;28;20049;-51
2023/09/01 01:51:05;;;;;;;7.13;3.40;;;10.50;99.90;;;;;;5043518;28;20052;-52
2023/09/01 01:53:40;;;;;;;6.03;3.08;;;10.50;99.90;;;;;;5044492;28;20044;-50
2023/09/01 01:56:06;;;;;;;8.38;3.55;;;10.50;99.90;;;;;;5038074;28;20045;-48
2023/09/01 01:58:32;;;;;;;7.90;3.10;;;10.50;99.90;;;;;;5029901;28;20119;-53
2023/09/01 02:00:58;;;;;;;6.03;3.03;;;10.60;99.90;;;;;;5023993;28;20073;-49
2023/09/01 02:03:24;;;;;;;7.95;3.17;;;10.50;99.90;;;;;;5024446;28;20526;-50
2023/09/01 02:05:50;;;;;;;9.52;3.00;;;10.50;99.90;;;;;;5023600;28;20064;-50
2023/09/01 02:08:15;;;;;;;6.78;2.90;;;10.50;99.90;;;;;;5024262;28;20057;-49
2023/09/01 02:10:41;;;;;;;7.25;3.20;;;10.40;99.90;;;;;;5025314;28;20045;-51
2023/09/01 02:13:06;;;;;;;8.02;3.30;;;10.40;99.90;;;;;;5024762;28;20758;-49
2023/09/01 02:15:32;;;;;;;5.40;2.90;;;10.40;99.90;;;;;;5023340;28;20094;-51
2023/09/01 02:17:57;;;;;;;7.95;3.53;;;10.40;99.90;;;;;;5023678;28;20041;-50
2023/09/01 02:20:24;;;;;;;7.70;3.08;;;10.40;99.90;;;;;;5024595;28;20045;-50
2023/09/01 02:22:50;;;;;;;6.63;3.00;;;10.40;99.90;;;;;;5022798;28;20518;-51
2023/09/01 02:25:17;;;;;;;7.10;3.53;;;10.30;99.90;;;;;;5023542;28;20046;-48
2023/09/01 02:27:42;;;;;;;7.03;3.53;;;10.30;99.90;;;;;;5024586;28;20034;-51
2023/09/01 02:30:10;;;;;;;9.02;3.40;;;10.30;99.90;;;;;;5023775;28;20373;-50
2023/09/01 02:32:37;;;;;;;5.88;3.15;;;10.20;99.90;;;;;;5022881;28;20471;-49
2023/09/01 02:35:05;;;;;;;6.43;3.28;;;10.20;99.90;;;;;;5023476;28;20100;-52
2023/09/01 02:37:32;;;;;;;6.38;3.28;;;10.20;99.90;;;;;;5023099;28;20128;-51
2023/09/01 02:39:57;;;;;;;7.90;3.20;;;10.20;99.90;;;;;;5021502;28;20107;-50
2023/09/01 02:42:23;;;;;;;8.65;3.58;;;10.10;99.90;;;;;;5023951;28;20419;-53
2023/09/01 02:44:49;;;;;;;6.07;3.35;;;10.10;99.90;;;;;;5023824;28;20047;-49
2023/09/01 02:47:15;;;;;;;5.25;3.17;;;10.10;99.90;;;;;;5024409;28;20045;-50
2023/09/01 02:49:40;;;;;;;8.80;4.60;;;10.00;99.90;;;;;;5022155;28;20697;-51
2023/09/01 02:52:06;;;;;;;8.40;4.30;;;10.10;99.90;;;;;;5023750;28;20049;-48
2023/09/01 02:54:32;;;;;;;7.70;3.88;;;10.10;99.90;;;;;;5023924;28;20047;-51
2023/09/01 02:56:57;;;;;;;6.20;3.53;;;10.20;99.90;;;;;;5034196;28;20392;-48
2023/09/01 02:59:23;;;;;;;6.50;3.53;;;10.20;99.90;;;;;;5023521;28;20046;-52
2023/09/01 03:01:49;;;;;;;5.78;3.35;;;11.40;99.90;;;;;;5022873;28;20427;-49
2023/09/01 03:04:15;;;;;;;7.15;3.47;;;10.10;99.90;;;;;;5025205;28;20049;-51
2023/09/01 03:06:41;;;;;;;6.80;3.85;;;10.00;99.90;;;;;;5040191;28;20498;-51
2023/09/01 03:09:09;;;;;;;6.20;3.67;;;10.00;99.90;;;;;;5027610;28;20101;-48
2023/09/01 03:11:35;;;;;;;6.97;3.63;;;9.90;99.90;;;;;;5026547;28;20045;-52
2023/09/01 03:14:00;;;;;;;8.15;4.22;;;9.90;99.90;;;;;;5042465;28;20060;-52
2023/09/01 03:16:30;;;;;;;8.27;3.95;;;9.90;99.90;;;;;;5044139;28;20041;-49
2023/09/01 03:18:59;;;;;;;7.85;4.22;;;10.00;99.90;;;;;;5044255;28;20052;-50
2023/09/01 03:21:30;;;;;;;12.25;4.50;;;10.00;99.90;;;;;;5043422;28;20037;-47
2023/09/01 03:23:57;;;;;;;7.30;4.55;;;10.10;99.90;;;;;;5042953;28;20056;-50
2023/09/01 03:26:23;;;;;;;7.78;4.70;;;10.10;99.90;;;;;;5043573;28;20095;-48
2023/09/01 03:28:49;;;;;;;8.68;4.32;;;10.40;99.90;;;;;;5043923;28;20044;-49
2023/09/01 03:31:15;;;;;;;7.13;4.18;;;10.20;99.90;;;;;;5043591;28;20045;-52
2023/09/01 03:33:41;;;;;;;8.75;4.60;;;10.30;99.90;;;;;;5009380;28;20045;-52
2023/09/01 03:36:08;;;;;;;7.63;4.25;;;10.20;99.90;;;;;;5043707;28;20040;-50
2023/09/01 03:38:34;;;;;;;12.05;4.60;;;10.10;99.90;;;;;;5042114;28;20053;-48
2023/09/01 03:41:07;;;;;;;7.57;4.53;;;10.20;99.90;;;;;;5029076;28;20048;-50
2023/09/01 03:43:33;;;;;;;8.52;4.28;;;10.20;99.90;;;;;;5023960;28;20045;-49
2023/09/01 03:45:59;;;;;;;8.43;4.22;;;10.10;99.90;;;;;;5022987;28;20049;-49
2023/09/01 03:48:26;;;;;;;8.48;4.32;;;10.10;99.90;;;;;;5023329;28;20088;-51
2023/09/01 03:51:17;;;;;;;9.20;4.10;;;10.10;99.90;;;;;;5025876;28;20045;-50
2023/09/01 03:53:43;;;;;;;7.88;4.32;;;10.10;99.90;;;;;;5027107;28;20087;-48
2023/09/01 03:56:13;;;;;;;8.13;4.22;;;10.10;99.90;;;;;;5033969;28;20052;-52
2023/09/01 03:58:39;;;;;;;6.05;4.20;;;10.20;99.90;;;;;;5030952;28;20124;-53
2023/09/01 04:01:08;;;;;;;6.57;4.10;;;10.20;99.90;;;;;;5026494;28;20124;-50
2023/09/01 04:03:34;;;;;;;8.90;4.13;;;10.40;99.90;;;;;;5027387;28;20522;-50
2023/09/01 04:06:00;;;;;;;10.20;4.50;;;10.20;99.90;;;;;;5026835;28;20191;-52
2023/09/01 04:08:26;;;;;;;7.72;3.72;;;10.20;99.90;;;;;;5025934;28;20128;-50
2023/09/01 04:10:51;;;;;;;6.78;4.07;;;10.10;99.90;;;;;;5027024;28;20041;-48
2023/09/01 04:13:17;;;;;;;7.35;4.30;;;10.10;99.90;;;;;;5027524;28;20045;-48
2023/09/01 04:15:42;;;;;;;6.60;4.50;;;10.10;99.90;;;;;;5026469;28;20128;-46
2023/09/01 04:18:08;;;;;;;7.60;4.45;;;10.10;99.90;;;;;;5026355;28;20045;-51
2023/09/01 04:20:34;;;;;;;7.22;4.40;;;10.10;99.90;;;;;;5026887;28;20753;-51
2023/09/01 04:22:59;;;;;;;9.50;4.43;;;10.20;99.90;;;;;;5026277;28;20314;-50
2023/09/01 04:25:25;;;;;;;7.82;4.50;;;10.10;99.90;;;;;;5025942;28;20076;-50
2023/09/01 04:27:50;;;;;;;8.20;4.50;;;10.10;99.90;;;;;;5026985;28;20045;-48
2023/09/01 04:30:16;;;;;;;8.30;4.97;;;10.10;99.90;;;;;;5026653;28;20805;-51
2023/09/01 04:32:44;;;;;;;7.18;4.75;;;10.10;99.90;;;;;;5008901;28;20160;-46
2023/09/01 04:35:10;;;;;;;12.40;4.63;;;10.10;99.90;;;;;;5026008;28;20650;-50
2023/09/01 04:37:36;;;;;;;6.60;4.53;;;10.10;99.90;;;;;;5025833;28;20473;-50
2023/09/01 04:40:06;;;;;;;8.35;4.85;;;10.10;99.90;;;;;;5008648;28;20054;-52
2023/09/01 04:42:32;;;;;;;9.85;4.90;;;10.10;99.90;;;;;;5025983;28;20053;-51
2023/09/01 04:44:57;;;;;;;7.00;4.82;;;10.10;99.90;;;;;;5025868;28;20041;-50
2023/09/01 04:47:23;;;;;;;8.38;4.70;;;10.10;99.90;;;;;;5026463;28;20084;-49
2023/09/01 04:49:50;;;;;;;6.50;4.60;;;10.10;99.90;;;;;;5026284;28;20112;-53
2023/09/01 04:52:15;;;;;;;8.25;4.75;;;10.10;99.90;;;;;;5025841;28;20060;-46
2023/09/01 04:54:41;;;;;;;6.60;4.68;;;10.00;99.90;;;;;;5026248;28;20041;-51
2023/09/01 04:57:06;;;;;;;10.90;5.30;;;10.00;99.90;;;;;;5037110;28;20140;-49
2023/09/01 04:59:32;;;;;;;5.43;4.43;;;10.00;99.90;;;;;;5025286;28;20510;-53
2023/09/01 05:02:00;;;;;;;8.73;4.93;;;10.00;99.90;;;;;;5025239;28;20043;-52
2023/09/01 05:04:26;;;;;;;8.55;5.18;;;10.10;99.90;;;;;;5025931;28;20049;-47
2023/09/01 05:06:52;;;;;;;9.50;4.97;;;10.10;99.90;;;;;;5025206;28;20109;-47
2023/09/01 05:09:19;;;;;;;7.20;5.00;;;10.10;99.90;;;;;;5025632;28;20057;-50
2023/09/01 05:11:44;;;;;;;8.05;5.13;;;10.20;99.90;;;;;;5027509;28;20047;-50
2023/09/01 05:14:10;;;;;;;9.88;5.07;;;10.20;99.90;;;;;;5030109;28;20038;-51
2023/09/01 05:16:36;;;;;;;9.98;4.60;;;10.20;99.90;;;;;;5025191;28;20346;-51
2023/09/01 05:19:02;;;;;;;7.10;4.82;;;10.20;99.90;;;;;;5025976;28;20037;-50
2023/09/01 05:21:28;;;;;;;6.07;4.78;;;10.20;99.90;;;;;;5025668;28;20041;-48
2023/09/01 05:23:53;;;;;;;8.02;5.30;;;10.20;99.90;;;;;;5046304;28;20040;-48
2023/09/01 05:26:19;;;;;;;8.25;5.22;;;10.20;99.90;;;;;;5026666;28;20053;-50
2023/09/01 05:28:45;;;;;;;7.85;4.85;;;10.20;99.90;;;;;;5045371;28;20053;-46
2023/09/01 05:31:11;;;;;;;8.98;5.00;;;10.20;99.90;;;;;;5045593;28;20041;-50
2023/09/01 05:33:36;;;;;;;10.38;4.95;;;10.30;99.90;;;;;;5044414;28;20128;-47
2023/09/01 05:36:02;;;;;;;8.88;5.30;;;10.70;99.90;;;;;;5045672;28;20051;-49
2023/09/01 05:38:28;;;;;;;9.05;5.35;;;10.50;99.90;;;;;;5044355;28;20044;-51
2023/09/01 05:41:01;;;;;;;7.53;5.07;;;10.80;99.90;;;;;;5027886;28;20044;-47
2023/09/01 05:43:28;;;;;;;8.20;5.22;;;11.00;99.90;;;;;;5045180;28;20056;-48
2023/09/01 05:45:54;;;;;;;7.03;4.70;;;11.50;99.90;;;;;;5045455;28;20438;-49
2023/09/01 05:48:20;;;;;;;7.93;4.75;;;11.80;99.90;;;;;;5045364;28;20078;-50
2023/09/01 05:50:45;;;;;;;7.90;4.80;;;11.90;99.90;;;;;;5044562;28;20090;-51
2023/09/01 05:53:11;;;;;;;6.82;4.43;;;12.10;99.90;;;;;;5044233;28;20041;-52
2023/09/01 05:55:37;;;;;;;9.57;4.90;;;12.30;99.90;;;;;;5039457;28;20053;-51
2023/09/01 05:58:03;;;;;;;7.70;4.05;;;12.30;99.90;;;;;;5015073;28;20080;-51
2023/09/01 06:00:32;;;;;;;7.03;4.45;;;12.30;99.90;;;;;;5025054;28;20830;-49
2023/09/01 06:02:58;;;;;;;7.03;4.70;;;12.30;99.90;;;;;;5025320;28;20135;-48
2023/09/01 06:05:24;;;;;;;11.70;4.47;;;12.60;99.90;;;;;;5025302;28;20085;-50
2023/09/01 06:07:49;;;;;;;7.28;4.40;;;12.80;99.90;;;;;;5023276;28;20084;-50
2023/09/01 06:10:15;;;;;;;8.65;4.70;;;13.10;99.90;;;;;;5025015;28;20053;-51
2023/09/01 06:12:41;;;;;;;6.75;4.65;;;13.30;99.90;;;;;;5024823;28;20104;-52
2023/09/01 06:15:07;;;;;;;9.27;4.88;;;13.40;99.90;;;;;;5024035;28;20107;-49
2023/09/01 06:17:33;;;;;;;7.93;4.40;;;13.50;99.90;;;;;;5024549;28;20045;-51
2023/09/01 06:19:59;;;;;;;8.68;4.80;;;13.40;99.90;;;;;;5024916;28;20052;-48
2023/09/01 06:22:25;;;;;;;6.55;4.40;;;13.30;99.90;;;;;;5024291;28;20041;-52
2023/09/01 06:24:51;;;;;;;6.45;3.78;;;13.40;99.90;;;;;;5023553;28;20037;-52
2023/09/01 06:27:16;;;;;;;7.30;4.20;;;14.00;99.90;;;;;;5006888;28;20049;-51
2023/09/01 06:29:42;;;;;;;9.93;4.80;;;14.00;99.90;;;;;;5024592;28;20049;-50
2023/09/01 06:32:11;;;;;;;7.22;4.32;;;14.20;99.90;;;;;;5032333;28;20099;-49
2023/09/01 06:34:38;;;;;;;7.05;4.03;;;14.30;99.90;;;;;;5040423;28;20066;-54
2023/09/01 06:37:03;;;;;;;11.05;4.25;;;14.70;99.90;;;;;;5043138;28;20045;-52
2023/09/01 06:39:29;;;;;;;7.60;3.92;;;14.60;99.90;;;;;;5043899;28;20045;-51
2023/09/01 06:41:55;;;;;;;9.85;4.50;;;14.50;99.90;;;;;;5027516;28;20518;-50
2023/09/01 06:44:20;;;;;;;7.13;4.00;;;14.70;99.90;;;;;;5024631;28;20129;-51
2023/09/01 06:46:46;;;;;;;9.55;4.13;;;15.00;99.90;;;;;;5024541;28;20060;-50
2023/09/01 06:49:12;;;;;;;8.77;4.03;;;15.20;99.90;;;;;;5022393;28;20041;-52
2023/09/01 06:51:38;;;;;;;9.50;3.65;;;15.30;99.90;;;;;;5023752;28;20384;-52
2023/09/01 06:54:03;;;;;;;7.57;3.35;;;15.40;99.90;;;;;;5024434;28;20693;-50
2023/09/01 06:56:29;;;;;;;7.20;3.70;;;15.50;99.90;;;;;;5033643;28;20384;-48
2023/09/01 06:58:55;;;;;;;9.60;4.00;;;15.60;99.90;;;;;;5035154;28;20503;-52
2023/09/01 07:01:21;;;;;;;10.13;3.67;;;15.80;99.90;;;;;;5044136;28;20415;-51
2023/09/01 07:03:47;;;;;;;9.27;3.42;;;15.90;99.90;;;;;;5044232;28;20056;-51
2023/09/01 07:06:13;;;;;;;6.35;3.28;;;16.10;99.90;;;;;;5042802;28;20064;-51
2023/09/01 07:08:38;;;;;;;6.95;3.25;;;15.90;99.90;;;;;;5043184;28;20086;-48
2023/09/01 07:11:06;;;;;;;9.00;3.75;;;15.80;99.90;;;;;;5043764;28;20045;-53
2023/09/01 07:13:32;;;;;;;4.63;3.05;;;15.80;99.90;;;;;;5044072;28;20048;-52
2023/09/01 07:15:58;;;;;;;7.30;3.17;;;15.90;99.90;;;;;;5043837;28;20040;-52
2023/09/01 07:18:25;;;;;;;12.20;3.88;;;15.90;99.90;;;;;;5043882;28;20072;-53
2023/09/01 07:20:51;;;;;;;7.68;3.50;;;15.60;99.90;;;;;;5044045;28;20874;-49
2023/09/01 07:23:17;;;;;;;6.47;3.47;;;15.50;99.90;;;;;;5027632;28;20045;-52
2023/09/01 07:25:44;;;;;;;9.43;3.45;;;15.30;99.90;;;;;;5028715;28;20472;-49
2023/09/01 07:28:13;;;;;;;5.60;3.40;;;15.50;99.90;;;;;;5047722;28;20456;-49
2023/09/01 07:30:38;;;;;;;6.60;3.55;;;15.70;99.90;;;;;;5047099;28;20041;-51
2023/09/01 07:33:04;;;;;;;6.97;3.45;;;16.10;99.90;;;;;;5046916;28;20045;-49
2023/09/01 07:35:30;;;;;;;5.00;2.80;;;16.50;99.90;;;;;;5047097;28;20033;-48
2023/09/01 07:37:57;;;;;;;6.88;2.70;;;16.90;99.90;;;;;;5046871;28;20639;-51
2023/09/01 07:40:23;;;;;;;5.28;2.70;;;17.20;99.90;;;;;;5030598;28;20087;-48
2023/09/01 07:42:48;;;;;;;7.05;2.30;;;17.40;99.90;;;;;;5027531;28;20095;-49
2023/09/01 07:45:14;;;;;;;4.97;2.30;;;17.60;99.90;;;;;;5009404;28;20049;-51
2023/09/01 07:47:40;;;;;;;7.72;2.15;;;17.80;99.90;;;;;;5027158;28;20049;-50
2023/09/01 07:50:07;;;;;;;4.93;2.00;;;17.90;99.90;;;;;;5034858;28;20041;-52
2023/09/01 07:52:32;;;;;;;3.83;1.73;;;17.70;99.90;;;;;;5046264;28;20060;-51
2023/09/01 07:54:58;;;;;;;3.97;1.65;;;17.50;99.90;;;;;;5045377;28;20753;-52
2023/09/01 07:57:23;;;;;;;3.53;1.73;;;17.20;99.90;;;;;;5036062;28;20068;-43
2023/09/01 07:59:49;;;;;;;9.57;2.30;;;16.90;99.90;;;;;;5026713;28;20041;-51
2023/09/01 08:02:15;;;;;;;4.00;2.20;;;16.70;99.90;;;;;;5026043;28;20068;-50
2023/09/01 08:04:40;;;;;;;6.63;2.20;;;16.40;99.90;;;;;;5026769;28;20184;-51
2023/09/01 08:07:06;;;;;;;4.57;1.90;;;16.40;99.90;;;;;;5033104;28;20588;-52
2023/09/01 08:09:31;;;;;;;6.47;1.90;;;16.40;99.90;;;;;;5047032;28;20090;-50
2023/09/01 08:11:57;;;;;;;7.45;2.00;;;16.60;99.90;;;;;;5047142;28;20040;-48
2023/09/01 08:14:23;;;;;;;5.63;1.98;;;16.70;99.90;;;;;;5035760;28;20099;-54
2023/09/01 08:16:48;;;;;;;5.00;1.80;;;16.90;99.90;;;;;;5026722;28;20053;-52
2023/09/01 08:19:14;;;;;;;4.78;1.83;;;17.20;99.90;;;;;;5027456;28;20115;-51
2023/09/01 08:21:40;;;;;;;5.55;1.77;;;17.10;99.90;;;;;;5026301;28;20081;-47
2023/09/01 08:24:07;;;;;;;7.45;2.30;;;17.20;99.90;;;;;;5027158;28;20045;-48
2023/09/01 08:26:33;;;;;;;6.80;2.15;;;17.20;99.90;;;;;;5026333;28;20463;-50
2023/09/01 08:28:59;;;;;;;6.60;2.30;;;17.10;99.90;;;;;;5026168;28;20045;-49
2023/09/01 08:31:25;;;;;;;3.70;2.45;;;17.00;99.90;;;;;;5025858;28;20532;-52
2023/09/01 08:33:51;;;;;;;9.45;2.90;;;17.00;99.90;;;;;;5024515;28;20053;-49
2023/09/01 08:36:17;;;;;;;5.45;2.72;;;17.00;99.90;;;;;;5024530;28;20050;-52
2023/09/01 08:38:43;;;;;;;6.10;2.40;;;17.10;99.90;;;;;;5025306;28;20071;-49
2023/09/01 08:41:09;;;;;;;7.20;1.90;;;17.00;99.90;;;;;;5025179;28;20751;-48
2023/09/01 08:43:39;;;;;;;6.72;2.28;;;17.00;99.90;;;;;;5026847;28;20099;-48
2023/09/01 08:46:06;;;;;;;5.20;1.75;;;17.10;99.90;;;;;;5025958;28;20068;-49
2023/09/01 08:48:34;;;;;;;7.47;2.13;;;17.00;99.90;;;;;;5026335;28;20033;-49
2023/09/01 08:51:03;;;;;;;6.60;1.60;;;17.00;99.90;;;;;;5009936;28;20110;-50
2023/09/01 08:53:29;;;;;;;7.80;2.25;;;17.10;99.90;;;;;;5046224;28;20049;-50
2023/09/01 08:55:54;;;;;;;4.88;2.05;;;17.30;99.90;;;;;;5039514;28;20041;-47
2023/09/01 08:58:21;;;;;;;6.88;2.22;;;17.40;99.90;;;;;;5031308;28;20408;-49
2023/09/01 09:00:48;;;;;;;6.40;2.53;;;17.40;99.90;;;;;;5025807;28;20474;-51
2023/09/01 09:03:16;;;;;;;4.90;2.20;;;17.50;99.90;;;;;;5025809;28;20127;-51
2023/09/01 09:05:44;;;;;;;8.77;2.30;;;17.50;99.90;;;;;;5032174;28;20037;-50
2023/09/01 09:08:09;;;;;;;4.85;1.65;;;17.50;99.90;;;;;;5028433;28;20041;-51
2023/09/01 09:10:40;;;;;;;4.60;1.80;;;17.50;99.90;;;;;;5027538;28;20049;-49
2023/09/01 09:13:30;;;;;;;6.22;2.03;;;17.50;99.90;;;;;;5045172;28;20051;-49
2023/09/01 09:16:12;;;;;;;4.75;1.65;;;17.50;99.90;;;;;;5030576;28;20053;-52
2023/09/01 09:18:46;;;;;;;4.35;1.60;;;17.50;99.90;;;;;;5036139;28;20052;-52
2023/09/01 09:21:26;;;;;;;4.47;1.45;;;17.60;99.90;;;;;;5025434;28;20045;-52
2023/09/01 09:23:53;;;;;;;5.72;1.77;;;17.70;99.90;;;;;;5024851;28;20045;-48
2023/09/01 09:26:30;;;;;;;5.40;1.58;;;17.80;99.90;;;;;;5025542;28;20064;-50
2023/09/01 09:29:06;;;;;;;2.72;1.35;;;17.90;99.90;;;;;;5040976;28;20040;-51
2023/09/01 09:31:44;;;;;;;2.88;1.20;;;18.00;99.90;;;;;;5045716;28;20088;-54
2023/09/01 09:34:24;;;;;;;8.73;1.77;;;18.00;99.90;;;;;;5044887;28;20037;-52
2023/09/01 09:36:49;;;;;;;4.07;1.20;;;18.10;99.90;;;;;;5044163;28;20084;-50
2023/09/01 09:39:25;;;;;;;4.55;1.33;;;18.20;99.90;;;;;;5027268;28;20491;-51
2023/09/01 09:41:51;;;;;;;5.47;1.40;;;18.30;99.90;;;;;;5020157;28;20468;-49
2023/09/01 09:44:31;;;;;;;4.00;1.48;;;18.20;99.90;;;;;;5044271;28;20124;-50
2023/09/01 09:46:57;;;;;;;5.05;1.30;;;18.30;99.90;;;;;;5008323;28;20057;-51
2023/09/01 09:49:24;;;;;;;3.33;1.15;;;18.30;99.90;;;;;;5027781;28;20092;-49
2023/09/01 09:51:51;;;;;;;3.95;1.33;;;18.40;99.90;;;;;;5038529;28;20041;-52
2023/09/01 09:54:22;;;;;;;4.15;1.05;;;18.30;99.90;;;;;;5044288;28;20091;-52
2023/09/01 09:56:50;;;;;;;7.00;1.75;;;18.30;99.90;;;;;;5037030;28;20049;-52
2023/09/01 09:59:22;;;;;;;4.28;1.92;;;18.30;99.90;;;;;;5024131;28;20042;-49
2023/09/01 10:01:49;;;;;;;6.07;1.63;;;18.20;99.90;;;;;;5024540;28;20083;-51
2023/09/01 10:04:17;;;;;;;4.07;1.52;;;18.10;99.90;;;;;;5024296;28;20157;-47
2023/09/01 10:06:44;;;;;;;4.22;1.38;;;18.20;99.90;;;;;;5023158;28;20057;-52
2023/09/01 10:09:11;;;;;;;3.33;1.27;;;18.30;99.90;;;;;;5007640;28;20092;-50
2023/09/01 10:11:37;;;;;;;5.20;1.30;;;18.20;99.90;;;;;;5025643;28;20159;-52
2023/09/01 10:14:04;;;;;;;4.40;1.60;;;18.30;99.90;;;;;;5024149;28;20111;-52
2023/09/01 10:16:30;;;;;;;3.03;1.27;;;18.30;99.90;;;;;;5025166;28;20049;-52
2023/09/01 10:18:56;;;;;;;5.65;1.42;;;18.30;99.90;;;;;;5024891;28;20504;-48
2023/09/01 10:21:22;;;;;;;4.60;1.60;;;18.30;99.90;;;;;;5023468;28;20044;-52
2023/09/01 10:23:48;;;;;;;4.38;1.20;;;18.30;99.90;;;;;;5025002;28;20958;-53
2023/09/01 10:26:17;;;;;;;4.38;1.35;;;18.30;99.90;;;;;;5025676;28;20095;-53
2023/09/01 10:29:01;;;;;;;5.60;1.55;;;18.40;99.90;;;;;;5034783;28;20156;-51
2023/09/01 10:31:28;;;;;;;4.93;1.40;;;18.40;99.90;;;;;;5044853;28;20387;-52
2023/09/01 10:34:14;;;;;;;5.72;1.45;;;18.50;99.90;;;;;;5020420;28;20375;-52
2023/09/01 10:36:44;;;;;;;4.57;1.40;;;18.50;99.90;;;;;;5024209;28;20470;-50
2023/09/01 10:39:16;;;;;;;4.95;1.38;;;18.50;99.90;;;;;;5024853;28;20068;-52
2023/09/01 10:42:02;;;;;;;4.13;1.30;;;18.60;99.90;;;;;;5023576;28;20510;-54
2023/09/01 10:44:42;;;;;;;3.83;1.70;;;18.60;99.90;;;;;;5024139;28;20064;-51
2023/09/01 10:47:32;;;;;;;3.65;2.00;;;18.60;99.90;;;;;;5023983;28;20056;-51
2023/09/01 10:50:00;;;;;;;5.18;2.40;;;18.60;99.90;;;;;;5024665;28;20045;-51
2023/09/01 10:52:28;;;;;;;6.55;2.85;;;18.60;99.90;;;;;;5023222;28;20037;-50
2023/09/01 10:54:59;;;;;;;5.28;2.40;;;18.70;99.90;;;;;;5024599;28;20049;-51
2023/09/01 10:57:38;;;;;;;4.63;2.50;;;18.90;99.90;;;;;;5033894;28;20045;-55
2023/09/01 11:00:23;;;;;;;6.25;2.42;;;19.00;99.90;;;;;;5023354;28;20206;-48
2023/09/01 11:02:50;;;;;;;4.30;2.40;;;19.10;99.90;;;;;;5024532;28;20041;-51
2023/09/01 11:05:38;;;;;;;4.13;2.15;;;19.30;99.90;;;;;;5023533;28;20057;-52
2023/09/01 11:08:15;;;;;;;6.20;2.00;;;19.50;99.90;;;;;;5037223;28;20061;-54
2023/09/01 11:10:41;;;;;;;3.72;1.77;;;19.80;99.90;;;;;;5042908;28;20049;-53
2023/09/01 11:13:18;;;;;;;4.10;2.00;;;20.00;99.90;;;;;;5031374;28;20044;-53
2023/09/01 11:15:49;;;;;;;5.05;2.03;;;20.20;99.90;;;;;;5042190;28;20049;-50
2023/09/01 11:18:22;;;;;;;4.28;2.10;;;20.30;99.90;;;;;;5043434;28;20140;-50
2023/09/01 11:20:54;;;;;;;6.40;2.08;;;20.20;99.90;;;;;;5042813;28;20049;-52
2023/09/01 11:23:24;;;;;;;5.43;2.03;;;20.30;99.90;;;;;;5042240;28;20041;-51
2023/09/01 11:25:56;;;;;;;5.57;1.63;;;20.30;99.90;;;;;;5043713;28;20439;-53
2023/09/01 11:28:24;;;;;;;6.97;2.15;;;20.60;99.90;;;;;;5043794;28;20048;-50
2023/09/01 11:30:57;;;;;;;4.10;2.13;;;21.00;99.40;;;;;;5030932;28;20416;-53
2023/09/01 11:33:25;;;;;;;7.00;2.00;;;21.10;99.00;;;;;;5007607;28;20045;-50
2023/09/01 11:36:04;;;;;;;5.57;2.10;;;21.10;98.00;;;;;;5031727;28;20128;-52
2023/09/01 11:38:30;;;;;;;4.70;2.00;;;20.90;98.00;;;;;;5023698;28;20104;-51
2023/09/01 11:40:56;;;;;;;3.80;2.30;;;20.90;97.80;;;;;;5024045;28;20057;-54
2023/09/01 11:43:24;;;;;;;4.53;2.38;;;20.80;98.50;;;;;;5023438;28;20046;-52
2023/09/01 11:45:50;;;;;;;7.10;2.72;;;20.90;99.00;;;;;;5023780;28;20045;-51
2023/09/01 11:48:25;;;;;;;7.20;2.33;;;21.10;99.10;;;;;;5023681;28;20549;-54
2023/09/01 11:50:57;;;;;;;5.05;2.30;;;21.40;99.10;;;;;;5022057;28;20060;-52
2023/09/01 11:53:25;;;;;;;6.30;3.08;;;21.70;98.60;;;;;;5023304;28;20139;-53
2023/09/01 11:55:51;;;;;;;7.22;3.00;;;21.90;98.80;;;;;;5026815;28;20053;-54
2023/09/01 11:58:17;;;;;;;5.43;2.72;;;21.90;98.50;;;;;;5030423;28;20041;-55
2023/09/01 12:00:44;;;;;;;7.65;2.75;;;22.00;98.50;;;;;;5033286;28;20083;-52
2023/09/01 12:03:11;;;;;;;6.15;3.40;;;22.10;98.70;;;;;;5027218;28;20053;-54
2023/09/01 12:05:41;;;;;;;8.23;3.40;;;22.30;97.80;;;;;;5040644;28;20387;-52
2023/09/01 12:08:08;;;;;;;6.72;3.72;;;22.20;97.60;;;;;;5043220;28;20072;-55
2023/09/01 12:10:34;;;;;;;9.40;4.32;;;22.20;96.80;;;;;;5042575;28;20119;-53
2023/09/01 12:13:07;;;;;;;8.27;3.85;;;22.10;97.00;;;;;;5009246;28;20112;-52
2023/09/01 12:15:52;;;;;;;10.32;4.22;;;21.90;97.50;;;;;;5026007;28;20053;-53
2023/09/01 12:18:25;;;;;;;11.07;4.43;;;21.90;97.10;;;;;;5027627;28;20048;-50
2023/09/01 12:20:52;;;;;;;10.18;3.72;;;21.70;97.00;;;;;;5026080;28;20064;-54
2023/09/01 12:23:25;;;;;;;7.55;3.53;;;21.70;97.50;;;;;;5026767;28;20096;-52
2023/09/01 12:25:51;;;;;;;9.65;3.60;;;21.90;97.80;;;;;;5026468;28;20107;-50
2023/09/01 12:28:16;;;;;;;8.15;3.50;;;21.90;96.60;;;;;;5016783;28;20419;-53
2023/09/01 12:30:42;;;;;;;10.00;3.38;;;21.70;96.70;;;;;;5046722;28;20497;-55
2023/09/01 12:33:08;;;;;;;9.80;3.90;;;21.60;97.10;;;;;;5045877;28;20040;-55
2023/09/01 12:35:33;;;;;;;7.28;3.60;;;21.70;96.80;;;;;;5038516;28;20495;-52
2023/09/01 12:37:59;;;;;;;5.57;3.53;;;21.70;96.90;;;;;;5029736;28;20041;-55
2023/09/01 12:40:24;;;;;;;10.52;4.40;;;21.50;97.70;;;;;;5026377;28;20495;-55
2023/09/01 12:42:50;;;;;;;10.40;3.80;;;21.60;98.20;;;;;;5026167;28;20037;-54
2023/09/01 12:45:16;;;;;;;7.85;3.95;;;21.70;98.20;;;;;;5043644;28;20136;-53
2023/09/01 12:47:41;;;;;;;6.35;3.33;;;21.90;96.90;;;;;;5046048;28;20041;-51
2023/09/01 12:50:07;;;;;;;9.25;4.10;;;21.80;96.80;;;;;;5046201;28;20040;-54